createdAt,value
2019-05-20T00:02:25.862Z,80.00
2019-05-20T00:04:48.732Z,75.60
2019-05-20T00:07:18.916Z,78.37
2019-05-20T00:09:49.093Z,76.17
2019-05-20T00:12:19.225Z,76.40
2019-05-20T00:14:49.414Z,73.13
2019-05-20T00:17:19.583Z,77.23
2019-05-20T00:19:50.827Z,76.27
2019-05-20T00:22:21.102Z,76.87
2019-05-20T00:24:51.256Z,77.37
2019-05-20T00:27:21.429Z,79.70
2019-05-20T00:29:52.693Z,77.40
2019-05-20T00:32:22.848Z,77.87
2019-05-20T00:34:53.029Z,71.47
2019-05-20T00:37:24.101Z,75.97
2019-05-20T00:39:54.283Z,74.63
2019-05-20T00:42:24.444Z,71.47
2019-05-20T00:44:54.611Z,73.83
2019-05-20T00:47:24.795Z,75.10
2019-05-20T00:49:54.961Z,77.33
2019-05-20T00:52:25.133Z,75.37
2019-05-20T00:54:55.294Z,71.80
2019-05-20T00:57:25.457Z,71.90
2019-05-20T00:59:55.603Z,73.00
2019-05-20T01:02:25.824Z,70.80
2019-05-20T01:04:56.041Z,70.97
2019-05-20T01:07:26.191Z,69.50
2019-05-20T01:09:56.464Z,68.10
2019-05-20T01:12:26.640Z,66.23
2019-05-20T01:14:56.812Z,63.77
2019-05-20T01:17:26.976Z,62.63
2019-05-20T01:19:57.192Z,62.13
2019-05-20T01:22:27.370Z,58.90
2019-05-20T01:24:57.543Z,54.73
2019-05-20T01:27:28.890Z,57.83
2019-05-20T01:29:59.062Z,60.07
2019-05-20T01:32:29.236Z,57.37
2019-05-20T01:34:59.386Z,59.60
2019-05-20T01:37:29.571Z,56.00
2019-05-20T01:39:59.735Z,57.23
2019-05-20T01:42:29.906Z,58.00
2019-05-20T01:45:00.153Z,56.20
2019-05-20T01:47:30.349Z,57.20
2019-05-20T01:50:00.531Z,56.17
2019-05-20T01:52:30.729Z,55.80
2019-05-20T01:55:00.915Z,57.77
2019-05-20T01:57:31.137Z,57.97
2019-05-20T02:00:01.313Z,55.30
2019-05-20T02:02:31.531Z,53.23
2019-05-20T02:05:01.701Z,48.53
2019-05-20T02:07:32.027Z,48.33
2019-05-20T02:10:02.215Z,46.40
2019-05-20T02:12:32.468Z,45.20
2019-05-20T02:15:08.672Z,44.47
2019-05-20T02:17:41.268Z,44.50
2019-05-20T02:20:11.436Z,45.90
2019-05-20T02:22:41.611Z,43.37
2019-05-20T02:25:11.883Z,43.47
2019-05-20T02:27:42.056Z,44.20
2019-05-20T02:30:12.533Z,40.90
2019-05-20T02:32:42.709Z,40.33
2019-05-20T02:35:13.362Z,39.90
2019-05-20T02:37:43.566Z,38.40
2019-05-20T02:40:13.941Z,36.90
2019-05-20T02:42:44.145Z,38.30
2019-05-20T02:45:14.519Z,36.30
2019-05-20T02:47:44.670Z,35.10
2019-05-20T02:50:14.949Z,33.60
2019-05-20T02:52:45.309Z,35.40
2019-05-20T02:55:15.553Z,36.07
2019-05-20T02:57:45.728Z,36.67
2019-05-20T03:00:16.792Z,37.43
2019-05-20T03:02:46.987Z,36.90
2019-05-20T03:05:17.157Z,37.97
2019-05-20T03:07:47.371Z,35.90
2019-05-20T03:10:17.628Z,37.33
2019-05-20T03:12:47.790Z,36.27
2019-05-20T03:15:18.068Z,39.30
2019-05-20T03:17:48.245Z,37.20
2019-05-20T03:20:18.488Z,34.77
2019-05-20T03:22:48.663Z,36.33
2019-05-20T03:25:18.977Z,35.77
2019-05-20T03:27:49.164Z,35.33
2019-05-20T03:30:20.244Z,36.30
2019-05-20T03:32:50.510Z,37.17
2019-05-20T03:35:21.796Z,34.07
2019-05-20T03:37:51.976Z,35.30
2019-05-20T03:40:22.213Z,36.90
2019-05-20T03:42:52.398Z,33.80
2019-05-20T03:45:22.569Z,33.40
2019-05-20T03:47:52.711Z,32.83
2019-05-20T03:50:22.889Z,34.10
2019-05-20T03:52:54.030Z,32.00
2019-05-20T03:55:24.209Z,32.40
2019-05-20T03:57:54.437Z,32.30
2019-05-20T04:00:43.118Z,32.10
2019-05-20T04:03:14.164Z,31.60
2019-05-20T04:05:44.777Z,31.27
2019-05-20T04:08:15.057Z,31.07
2019-05-20T04:10:45.376Z,32.67
2019-05-20T04:13:15.560Z,31.17
2019-05-20T04:15:46.679Z,30.83
2019-05-20T04:18:16.925Z,30.10
2019-05-20T04:20:47.180Z,32.00
2019-05-20T04:23:17.556Z,31.30
2019-05-20T04:25:47.700Z,28.47
2019-05-20T04:28:18.018Z,32.47
2019-05-20T04:30:48.173Z,29.73
2019-05-20T04:33:18.318Z,29.67
2019-05-20T04:35:49.764Z,30.87
2019-05-20T04:38:20.328Z,30.77
2019-05-20T04:40:50.491Z,30.27
2019-05-20T04:43:20.655Z,29.60
2019-05-20T04:45:52.077Z,30.47
2019-05-20T04:48:22.251Z,30.37
2019-05-20T04:50:52.434Z,30.00
2019-05-20T04:53:22.597Z,30.93
2019-05-20T04:55:52.765Z,30.03
2019-05-20T04:58:22.852Z,29.80
2019-05-20T05:00:54.908Z,29.40
2019-05-20T05:03:25.277Z,29.37
2019-05-20T05:05:55.907Z,28.90
2019-05-20T05:08:26.068Z,29.27
2019-05-20T05:10:56.365Z,29.27
2019-05-20T05:13:26.541Z,29.30
2019-05-20T05:15:56.902Z,29.10
2019-05-20T05:18:27.192Z,29.10
2019-05-20T05:20:57.368Z,27.10
2019-05-20T05:23:27.515Z,27.10
2019-05-20T05:25:57.696Z,26.33
2019-05-20T05:28:28.839Z,28.43
2019-05-20T05:30:59.023Z,27.90
2019-05-20T05:33:29.272Z,26.70
2019-05-20T05:35:59.431Z,26.80
2019-05-20T05:38:29.633Z,28.50
2019-05-20T05:40:59.811Z,30.70
2019-05-20T05:43:29.985Z,28.03
2019-05-20T05:46:00.237Z,28.10
2019-05-20T05:48:30.412Z,26.90
2019-05-20T05:51:00.583Z,25.10
2019-05-20T05:53:30.848Z,24.77
2019-05-20T05:56:00.997Z,23.97
2019-05-20T05:58:31.273Z,23.27
2019-05-20T06:01:02.552Z,23.87
2019-05-20T06:03:32.707Z,22.07
2019-05-20T06:06:12.121Z,22.80
2019-05-20T06:08:34.720Z,23.73
2019-05-20T06:11:04.920Z,22.40
2019-05-20T06:13:35.075Z,23.73
2019-05-20T06:16:05.281Z,21.90
2019-05-20T06:18:35.420Z,20.90
2019-05-20T06:21:05.584Z,22.43
2019-05-20T06:23:35.744Z,20.90
2019-05-20T06:26:06.087Z,22.37
2019-05-20T06:28:36.228Z,22.37
2019-05-20T06:31:06.402Z,21.83
2019-05-20T06:33:36.863Z,22.67
2019-05-20T06:36:07.220Z,23.53
2019-05-20T06:38:47.979Z,23.43
2019-05-20T06:41:18.237Z,23.70
2019-05-20T06:43:48.527Z,25.10
2019-05-20T06:46:18.713Z,25.73
2019-05-20T06:48:48.846Z,28.80
2019-05-20T06:51:19.016Z,29.60
2019-05-20T06:53:49.151Z,25.10
2019-05-20T06:56:19.357Z,26.17
2019-05-20T06:58:49.516Z,28.57
2019-05-20T07:01:19.744Z,26.20
2019-05-20T07:03:49.930Z,25.60
2019-05-20T07:06:20.101Z,25.10
2019-05-20T07:08:50.271Z,25.10
2019-05-20T07:11:21.460Z,25.80
2019-05-20T07:13:51.691Z,23.10
2019-05-20T07:16:22.972Z,23.03
2019-05-20T07:18:53.826Z,21.73
2019-05-20T07:21:23.999Z,22.97
2019-05-20T07:23:54.303Z,22.40
2019-05-20T07:26:24.642Z,21.10
2019-05-20T07:28:54.856Z,20.60
2019-05-20T07:31:26.092Z,24.00
2019-05-20T07:33:56.284Z,24.00
2019-05-20T07:36:26.440Z,23.40
2019-05-20T07:38:56.629Z,23.33
2019-05-20T07:41:26.866Z,24.90
2019-05-20T07:43:57.140Z,24.87
2019-05-20T07:46:27.737Z,24.73
2019-05-20T07:48:58.747Z,24.93
2019-05-20T07:51:29.495Z,24.70
2019-05-20T07:54:01.265Z,24.37
2019-05-20T07:56:35.201Z,27.07
2019-05-20T07:59:07.660Z,25.50
2019-05-20T08:01:38.085Z,26.20
2019-05-20T08:04:08.231Z,25.47
2019-05-20T08:06:38.401Z,27.10
2019-05-20T08:09:09.744Z,26.30
2019-05-20T08:11:40.014Z,26.10
2019-05-20T08:14:11.635Z,23.73
2019-05-20T08:16:41.852Z,25.93
2019-05-20T08:19:12.038Z,27.87
2019-05-20T08:21:42.266Z,27.23
2019-05-20T08:24:12.441Z,28.17
2019-05-20T08:26:42.722Z,27.93
2019-05-20T08:29:13.072Z,28.27
2019-05-20T08:31:43.248Z,29.27
2019-05-20T08:34:13.395Z,29.73
2019-05-20T08:36:43.586Z,29.90
2019-05-20T08:39:13.767Z,30.60
2019-05-20T08:41:44.001Z,32.27
2019-05-20T08:44:14.184Z,32.07
2019-05-20T08:46:44.332Z,31.40
2019-05-20T08:49:14.492Z,33.47
2019-05-20T08:51:44.657Z,31.90
2019-05-20T08:54:14.806Z,36.20
2019-05-20T08:56:44.976Z,33.27
2019-05-20T08:59:15.216Z,33.87
2019-05-20T09:01:45.393Z,32.30
2019-05-20T09:04:15.556Z,33.80
2019-05-20T09:06:45.732Z,31.67
2019-05-20T09:09:15.890Z,32.83
2019-05-20T09:11:47.799Z,34.47
2019-05-20T09:14:17.944Z,34.87
2019-05-20T09:16:48.104Z,34.70
2019-05-20T09:19:18.273Z,34.50
2019-05-20T09:21:48.424Z,34.10
2019-05-20T09:24:19.134Z,33.57
2019-05-20T09:26:49.601Z,34.83
2019-05-20T09:29:19.878Z,32.13
2019-05-20T09:31:50.191Z,33.80
2019-05-20T09:34:20.478Z,33.17
2019-05-20T09:36:50.839Z,32.93
2019-05-20T09:39:21.056Z,33.47
2019-05-20T09:41:51.240Z,34.13
2019-05-20T09:44:21.404Z,31.97
2019-05-20T09:46:51.581Z,35.50
2019-05-20T09:49:21.762Z,35.07
2019-05-20T09:51:51.949Z,32.17
2019-05-20T09:54:22.179Z,32.63
2019-05-20T09:56:52.468Z,34.00
2019-05-20T09:59:22.739Z,33.37
2019-05-20T10:01:52.921Z,34.27
2019-05-20T10:04:23.119Z,32.67
2019-05-20T10:06:53.299Z,34.23
2019-05-20T10:09:24.561Z,33.90
2019-05-20T10:11:54.800Z,31.47
2019-05-20T10:14:25.126Z,32.90
2019-05-20T10:16:55.341Z,32.60
2019-05-20T10:19:25.544Z,31.13
2019-05-20T10:21:55.703Z,31.80
2019-05-20T10:24:26.029Z,29.83
2019-05-20T10:26:56.257Z,29.83
2019-05-20T10:29:26.439Z,28.97
2019-05-20T10:31:56.575Z,29.93
2019-05-20T10:34:26.759Z,29.83
2019-05-20T10:36:56.912Z,28.50
2019-05-20T10:39:27.152Z,26.30
2019-05-20T10:41:57.301Z,26.20
2019-05-20T10:44:27.457Z,27.70
2019-05-20T10:46:57.585Z,25.20
2019-05-20T10:49:27.744Z,27.00
2019-05-20T10:51:57.976Z,27.67
2019-05-20T10:54:29.250Z,26.50
2019-05-20T10:56:59.890Z,27.23
2019-05-20T10:59:30.398Z,28.90
2019-05-20T11:02:00.585Z,28.77
2019-05-20T11:04:30.740Z,29.40
2019-05-20T11:07:00.888Z,31.73
2019-05-20T11:09:31.037Z,31.83
2019-05-20T11:12:01.212Z,31.50
2019-05-20T11:14:31.352Z,33.57
2019-05-20T11:17:01.528Z,33.77
2019-05-20T11:19:31.703Z,34.13
2019-05-20T11:22:01.851Z,32.97
2019-05-20T11:24:32.073Z,34.53
2019-05-20T11:27:02.244Z,34.40
2019-05-20T11:29:32.389Z,36.13
2019-05-20T11:32:02.543Z,36.30
2019-05-20T11:34:32.829Z,39.30
2019-05-20T11:37:03.281Z,37.20
2019-05-20T11:39:34.217Z,38.73
2019-05-20T11:42:04.552Z,38.80
2019-05-20T11:44:34.713Z,41.13
2019-05-20T11:47:05.034Z,38.33
2019-05-20T11:49:36.221Z,36.80
2019-05-20T11:52:06.383Z,38.17
2019-05-20T11:54:36.588Z,38.37
2019-05-20T11:57:06.908Z,39.10
2019-05-20T11:59:37.092Z,38.53
2019-05-20T12:02:07.275Z,38.53
2019-05-20T12:04:37.446Z,38.20
2019-05-20T12:07:08.646Z,35.20
2019-05-20T12:09:48.982Z,34.93
2019-05-20T12:12:10.924Z,36.93
2019-05-20T12:14:41.216Z,36.77
2019-05-20T12:17:11.487Z,34.63
2019-05-20T12:19:41.724Z,33.10
2019-05-20T12:22:11.966Z,35.10
2019-05-20T12:24:42.193Z,34.10
2019-05-20T12:27:12.356Z,35.10
2019-05-20T12:29:42.540Z,37.40
2019-05-20T12:32:12.795Z,37.80
2019-05-20T12:34:44.393Z,36.40
2019-05-20T12:37:14.591Z,36.27
2019-05-20T12:39:44.765Z,35.00
2019-05-20T12:42:15.074Z,37.10
2019-05-20T12:44:45.379Z,34.47
2019-05-20T12:47:15.647Z,34.07
2019-05-20T12:49:45.956Z,35.87
2019-05-20T12:52:16.130Z,36.40
2019-05-20T12:54:46.364Z,36.30
2019-05-20T12:57:16.591Z,33.17
2019-05-20T12:59:47.984Z,35.37
2019-05-20T13:02:18.169Z,35.90
2019-05-20T13:04:48.436Z,33.50
2019-05-20T13:07:18.621Z,32.30
2019-05-20T13:09:48.874Z,30.73
2019-05-20T13:12:19.039Z,28.00
2019-05-20T13:14:49.220Z,29.00
2019-05-20T13:17:19.375Z,27.97
2019-05-20T13:19:49.613Z,29.10
2019-05-20T13:22:19.829Z,29.70
2019-05-20T13:24:51.184Z,29.90
2019-05-20T13:27:21.335Z,29.97
2019-05-20T13:29:51.521Z,28.83
2019-05-20T13:32:21.756Z,29.60
2019-05-20T13:34:52.019Z,28.67
2019-05-20T13:37:22.190Z,29.90
2019-05-20T13:39:52.376Z,30.90
2019-05-20T13:42:22.520Z,31.70
2019-05-20T13:44:52.712Z,31.07
2019-05-20T13:47:22.866Z,34.07
2019-05-20T13:49:53.036Z,33.60
2019-05-20T13:52:23.213Z,35.30
2019-05-20T13:54:53.398Z,35.57
2019-05-20T13:57:23.600Z,36.33
2019-05-20T13:59:53.776Z,35.30
2019-05-20T14:02:23.937Z,35.97
2019-05-20T14:04:54.178Z,35.20
2019-05-20T14:07:24.431Z,37.27
2019-05-20T14:09:54.590Z,37.67
2019-05-20T14:12:24.755Z,37.40
2019-05-20T14:14:55.021Z,37.57
2019-05-20T14:17:26.159Z,37.33
2019-05-20T14:19:57.811Z,37.27
2019-05-20T14:22:27.976Z,37.80
2019-05-20T14:24:58.296Z,38.33
2019-05-20T14:27:28.703Z,37.80
2019-05-20T14:29:59.014Z,36.80
2019-05-20T14:32:29.186Z,38.40
2019-05-20T14:34:59.387Z,38.00
2019-05-20T14:37:29.708Z,40.40
2019-05-20T14:39:59.995Z,39.30
2019-05-20T14:42:30.215Z,35.57
2019-05-20T14:45:00.477Z,37.00
2019-05-20T14:47:30.745Z,35.87
2019-05-20T14:50:00.916Z,37.00
2019-05-20T14:52:32.270Z,35.20
2019-05-20T14:55:02.428Z,34.37
2019-05-20T14:57:33.713Z,36.30
2019-05-20T15:00:04.498Z,35.73
2019-05-20T15:02:36.003Z,33.77
2019-05-20T15:05:07.456Z,33.93
2019-05-20T15:07:40.243Z,33.87
2019-05-20T15:10:11.402Z,34.70
2019-05-20T15:12:41.750Z,32.70
2019-05-20T15:15:12.321Z,34.03
2019-05-20T15:17:42.581Z,32.27
2019-05-20T15:20:15.540Z,32.17
2019-05-20T15:22:45.713Z,33.13
2019-05-20T15:25:15.987Z,31.97
2019-05-20T15:27:49.594Z,32.10
2019-05-20T15:30:18.159Z,28.67
2019-05-20T15:32:48.425Z,31.17
2019-05-20T15:35:18.713Z,30.30
2019-05-20T15:37:48.851Z,30.70
2019-05-20T15:40:23.848Z,30.73
2019-05-20T15:42:51.521Z,31.80
2019-05-20T15:45:23.166Z,29.97
2019-05-20T15:47:53.580Z,32.53
2019-05-20T15:50:23.839Z,31.47
2019-05-20T15:52:54.235Z,28.77
2019-05-20T15:55:24.719Z,29.37
2019-05-20T15:57:55.031Z,28.60
2019-05-20T16:00:25.269Z,30.10
2019-05-20T16:02:55.562Z,29.00
2019-05-20T16:05:25.768Z,29.90
2019-05-20T16:07:56.550Z,30.87
2019-05-20T16:10:26.729Z,28.73
2019-05-20T16:12:56.939Z,28.77
2019-05-20T16:15:27.119Z,30.10
2019-05-20T16:17:57.431Z,30.70
2019-05-20T16:20:27.677Z,31.00
2019-05-20T16:22:57.884Z,33.30
2019-05-20T16:25:28.154Z,32.67
2019-05-20T16:27:58.525Z,30.13
2019-05-20T16:30:28.768Z,32.60
2019-05-20T16:32:59.062Z,33.73
2019-05-20T16:35:29.411Z,33.53
2019-05-20T16:37:59.704Z,34.33
2019-05-20T16:40:29.980Z,33.90
2019-05-20T16:43:00.391Z,34.10
2019-05-20T16:45:30.595Z,34.27
2019-05-20T16:48:00.897Z,32.20
2019-05-20T16:50:31.079Z,29.80
2019-05-20T16:53:01.312Z,32.07
2019-05-20T16:55:31.577Z,28.20
2019-05-20T16:58:01.803Z,30.47
2019-05-20T17:00:32.455Z,29.47
2019-05-20T17:03:02.869Z,29.27
2019-05-20T17:05:33.140Z,29.33
2019-05-20T17:08:03.384Z,29.40
2019-05-20T17:10:33.763Z,29.50
2019-05-20T17:13:04.064Z,28.97
2019-05-20T17:15:34.239Z,28.60
2019-05-20T17:18:04.655Z,27.23
2019-05-20T17:20:34.859Z,27.20
2019-05-20T17:23:05.032Z,28.17
2019-05-20T17:25:35.375Z,26.30
2019-05-20T17:28:05.555Z,26.93
2019-05-20T17:30:44.891Z,26.40
2019-05-20T17:33:07.648Z,27.80
2019-05-20T17:35:37.849Z,25.80
2019-05-20T17:38:08.277Z,25.70
2019-05-20T17:40:38.552Z,26.07
2019-05-20T17:43:08.940Z,26.80
2019-05-20T17:45:39.204Z,27.20
2019-05-20T17:48:11.207Z,27.67
2019-05-20T17:50:41.507Z,25.70
2019-05-20T17:53:11.913Z,27.30
2019-05-20T17:55:43.233Z,27.27
2019-05-20T17:58:13.570Z,27.33
2019-05-20T18:00:45.066Z,29.10
2019-05-20T18:03:15.469Z,27.60
2019-05-20T18:05:45.681Z,29.00
2019-05-20T18:08:16.936Z,29.53
2019-05-20T18:10:47.151Z,30.00
2019-05-20T18:13:17.459Z,29.97
2019-05-20T18:15:47.651Z,30.47
2019-05-20T18:18:17.926Z,30.20
2019-05-20T18:20:48.214Z,27.57
2019-05-20T18:23:18.608Z,28.37
2019-05-20T18:25:48.890Z,30.20
2019-05-20T18:28:19.313Z,30.40
2019-05-20T18:30:49.498Z,30.47
2019-05-20T18:33:19.932Z,30.10
2019-05-20T18:35:50.157Z,30.03
2019-05-20T18:38:20.491Z,30.37
2019-05-20T18:40:50.823Z,30.33
2019-05-20T18:43:21.120Z,29.37
2019-05-20T18:45:51.355Z,31.23
2019-05-20T18:48:21.523Z,30.57
2019-05-20T18:50:51.719Z,30.27
2019-05-20T18:53:21.921Z,29.23
2019-05-20T18:55:52.122Z,30.00
2019-05-20T18:58:22.385Z,28.70
2019-05-20T19:00:52.625Z,29.27
2019-05-20T19:03:23.507Z,30.07
2019-05-20T19:05:53.968Z,31.13
2019-05-20T19:08:25.729Z,28.23
2019-05-20T19:10:57.173Z,30.60
2019-05-20T19:13:27.416Z,30.17
2019-05-20T19:15:57.611Z,30.93
2019-05-20T19:18:27.892Z,31.30
2019-05-20T19:20:58.252Z,31.90
2019-05-20T19:23:28.443Z,32.10
2019-05-20T19:25:58.625Z,29.80
2019-05-20T19:28:28.808Z,30.20
2019-05-20T19:30:59.030Z,31.10
2019-05-20T19:33:29.281Z,31.70
2019-05-20T19:35:59.528Z,30.57
2019-05-20T19:38:34.283Z,31.67
2019-05-20T19:41:01.615Z,32.10
2019-05-20T19:43:32.085Z,33.77
2019-05-20T19:46:02.614Z,33.70
2019-05-20T19:48:32.894Z,31.70
2019-05-20T19:51:03.223Z,32.67
2019-05-20T19:53:34.478Z,34.17
2019-05-20T19:56:04.728Z,33.23
2019-05-20T19:58:35.995Z,34.67
2019-05-20T20:01:06.322Z,33.23
2019-05-20T20:03:36.504Z,32.70
2019-05-20T20:06:06.744Z,34.20
2019-05-20T20:08:37.033Z,32.33
2019-05-20T20:11:07.315Z,30.93
2019-05-20T20:13:37.517Z,33.03
2019-05-20T20:16:07.753Z,32.57
2019-05-20T20:18:37.986Z,32.83
2019-05-20T20:21:08.215Z,32.30
2019-05-20T20:23:38.449Z,33.90
2019-05-20T20:26:08.733Z,32.17
2019-05-20T20:28:38.916Z,32.20
2019-05-20T20:31:11.025Z,36.53
2019-05-20T20:33:41.757Z,32.57
2019-05-20T20:36:12.048Z,35.60
2019-05-20T20:38:42.282Z,35.40
2019-05-20T20:41:12.607Z,34.17
2019-05-20T20:43:42.897Z,36.17
2019-05-20T20:46:13.108Z,36.60
2019-05-20T20:48:43.332Z,34.10
2019-05-20T20:51:14.516Z,33.97
2019-05-20T20:53:44.720Z,34.53
2019-05-20T20:56:24.702Z,33.37
2019-05-20T20:58:48.032Z,34.90
2019-05-20T21:01:19.429Z,31.93
2019-05-20T21:03:49.659Z,32.30
2019-05-20T21:06:19.816Z,34.33
2019-05-20T21:08:50.004Z,35.57
2019-05-20T21:11:20.250Z,36.60
2019-05-20T21:13:50.522Z,36.50
2019-05-20T21:16:20.703Z,34.87
2019-05-20T21:18:50.878Z,37.47
2019-05-20T21:21:21.063Z,34.93
2019-05-20T21:23:51.427Z,36.90
2019-05-20T21:26:21.700Z,39.83
2019-05-20T21:28:51.952Z,36.33
2019-05-20T21:31:23.313Z,38.57
2019-05-20T21:33:54.603Z,37.23
2019-05-20T21:36:24.778Z,38.00
2019-05-20T21:38:54.943Z,40.17
2019-05-20T21:41:25.152Z,37.33
2019-05-20T21:43:55.311Z,37.27
2019-05-20T21:46:25.502Z,38.00
2019-05-20T21:48:55.577Z,40.10
2019-05-20T21:51:25.776Z,38.47
2019-05-20T21:53:56.040Z,41.33
2019-05-20T21:56:26.367Z,39.50
2019-05-20T21:58:56.593Z,37.20
2019-05-20T22:01:27.002Z,40.27
2019-05-20T22:03:57.162Z,40.03
2019-05-20T22:06:27.407Z,38.47
2019-05-20T22:08:57.588Z,37.80
2019-05-20T22:11:27.881Z,38.50
2019-05-20T22:13:58.040Z,38.53
2019-05-20T22:16:29.789Z,42.70
2019-05-20T22:19:00.222Z,45.53
2019-05-20T22:21:36.388Z,45.30
2019-05-20T22:24:07.428Z,43.63
2019-05-20T22:26:37.590Z,44.40
2019-05-20T22:29:07.764Z,45.93
2019-05-20T22:31:37.918Z,46.77
2019-05-20T22:34:09.152Z,46.97
2019-05-20T22:36:39.416Z,45.37
2019-05-20T22:39:09.687Z,43.73
2019-05-20T22:41:39.900Z,44.60
2019-05-20T22:44:10.119Z,43.90
2019-05-20T22:46:40.278Z,45.10
2019-05-20T22:49:10.551Z,45.63
2019-05-20T22:51:40.699Z,44.93
2019-05-20T22:54:11.058Z,45.00
2019-05-20T22:56:42.542Z,44.70
2019-05-20T22:59:12.719Z,47.63
2019-05-20T23:01:42.859Z,42.60
2019-05-20T23:04:13.050Z,43.27
2019-05-20T23:06:43.229Z,42.57
2019-05-20T23:09:14.952Z,40.23
2019-05-20T23:11:45.416Z,40.33
2019-05-20T23:14:15.606Z,38.70
2019-05-20T23:16:45.791Z,38.23
2019-05-20T23:19:15.949Z,38.40
2019-05-20T23:21:46.102Z,36.03
2019-05-20T23:24:16.298Z,34.53
2019-05-20T23:26:46.443Z,34.83
2019-05-20T23:29:16.612Z,33.33
2019-05-20T23:31:46.780Z,33.50
2019-05-20T23:34:17.007Z,34.63
2019-05-20T23:36:47.164Z,34.03
2019-05-20T23:39:17.329Z,34.00
2019-05-20T23:41:47.495Z,32.57
2019-05-20T23:44:17.649Z,35.83
2019-05-20T23:46:47.891Z,34.83
2019-05-20T23:49:18.096Z,34.47
2019-05-20T23:51:48.330Z,34.40
2019-05-20T23:54:19.559Z,34.87
2019-05-20T23:56:49.732Z,33.50
2019-05-20T23:59:19.917Z,32.43
